Ana Sayfa
METAR-TAF:

METAR-TAF

Havaalanları :

Bata, Ekvator Ginesi

Enlem: 1-54-15N, Boylam: 9-48-15E, yükseklik: 4 m

METAR: eksik

Saat: 05:40 (04:40 UTC)

Tahmin

Rapor saat 23:00 UTC de 5 saat ve 40 dakika önce yapıldı.
Ayın 19'si saat 00 UTC'den ayın 19'si saat 24 UTC'ye kadar geçerli Tahmin
Rüzgar güney/güneybatıdan 6 kt
Görüş mesafesi: 8000 m
1200 ft yükseklikte parçalı bulutlu
Olasılık 30%
ayın 19'si saat 10 UTC'den ayın 19'si saat 18 UTC'ye kadar
1300 ft yükseklikte parçalı çok bulutlu
2000 ft yükseklikte az bulutlu, Kümülonimbus.
gök gürültülü fırtına

TAF: FGBT 182300Z 1900/1924 21006KT 8000 SCT012 PROB30 1910/1918 TS BKN013 FEW020CB

4.000'den fazla havaalanı için hava durumu gözlemleri ve tahminleri (METAR ve TAF raporları).

Kullanılabilir istasyonlar harita üzerinde sarı ve kırmızı noktalarla gösterilir.

İstasyonun adını görmek için fareyi noktanın üzerinde gezdirin.

Sonrasında hava gözlem ve tahminlerini görmek için tıklayın.

Haritayı değiştirmek için: yaklaştırmak için siyah artı işaretli yeşil düğmeye ve uzaklaştırmak için de eksi işaretli düğmeye hızla tıklayın; bitişik haritalar için yeşil okları kullanın.


METAR-TAF: